sensor_id;sensor_type;location;lat;lon;timestamp;pressure;altitude;pressure_sealevel;temperature;humidity
74708;BME280;63360;50.104;8.074;2023-05-07T00:02:12;97170.75;;;12.10;97.35
74708;BME280;63360;50.104;8.074;2023-05-07T00:04:38;97193.09;;;12.20;97.92
74708;BME280;63360;50.104;8.074;2023-05-07T00:07:05;97181.63;;;12.12;98.23
74708;BME280;63360;50.104;8.074;2023-05-07T00:09:31;97192.94;;;12.16;97.96
74708;BME280;63360;50.104;8.074;2023-05-07T00:11:58;97191.72;;;12.14;98.69
74708;BME280;63360;50.104;8.074;2023-05-07T00:14:24;97177.34;;;12.08;99.09
74708;BME280;63360;50.104;8.074;2023-05-07T00:16:51;97171.66;;;12.06;99.53
74708;BME280;63360;50.104;8.074;2023-05-07T00:19:17;97172.78;;;12.05;99.21
74708;BME280;63360;50.104;8.074;2023-05-07T00:21:44;97169.06;;;12.06;99.52
74708;BME280;63360;50.104;8.074;2023-05-07T00:24:10;97184.53;;;12.11;99.37
74708;BME280;63360;50.104;8.074;2023-05-07T00:26:36;97178.56;;;12.10;99.10
74708;BME280;63360;50.104;8.074;2023-05-07T00:29:03;97182.41;;;12.13;99.59
74708;BME280;63360;50.104;8.074;2023-05-07T00:31:29;97172.88;;;12.08;99.37
74708;BME280;63360;50.104;8.074;2023-05-07T00:33:56;97167.81;;;12.12;99.77
74708;BME280;63360;50.104;8.074;2023-05-07T00:36:22;97169.22;;;12.09;100.00
74708;BME280;63360;50.104;8.074;2023-05-07T00:38:48;97152.38;;;11.98;99.81
74708;BME280;63360;50.104;8.074;2023-05-07T00:41:15;97172.78;;;12.05;100.00
74708;BME280;63360;50.104;8.074;2023-05-07T00:43:41;97160.53;;;11.97;100.00
74708;BME280;63360;50.104;8.074;2023-05-07T00:46:08;97165.41;;;11.98;100.00
74708;BME280;63360;50.104;8.074;2023-05-07T00:48:35;97168.03;;;11.98;100.00
74708;BME280;63360;50.104;8.074;2023-05-07T00:51:01;97171.59;;;11.94;100.00
74708;BME280;63360;50.104;8.074;2023-05-07T00:53:28;97169.59;;;11.91;100.00
74708;BME280;63360;50.104;8.074;2023-05-07T00:55:55;97155.53;;;11.83;100.00
74708;BME280;63360;50.104;8.074;2023-05-07T00:58:22;97178.31;;;11.95;100.00
74708;BME280;63360;50.104;8.074;2023-05-07T01:00:48;97165.16;;;11.91;100.00
74708;BME280;63360;50.104;8.074;2023-05-07T01:03:15;97175.84;;;11.98;100.00
74708;BME280;63360;50.104;8.074;2023-05-07T01:05:42;97160.38;;;11.93;100.00
74708;BME280;63360;50.104;8.074;2023-05-07T01:08:12;97155.34;;;11.88;100.00
74708;BME280;63360;50.104;8.074;2023-05-07T01:10:39;97161.44;;;11.92;100.00
74708;BME280;63360;50.104;8.074;2023-05-07T01:13:09;97177.69;;;11.98;100.00
74708;BME280;63360;50.104;8.074;2023-05-07T01:15:36;97175.41;;;11.96;100.00
74708;BME280;63360;50.104;8.074;2023-05-07T01:18:04;97167.75;;;11.91;100.00
74708;BME280;63360;50.104;8.074;2023-05-07T01:20:30;97164.38;;;11.91;100.00
74708;BME280;63360;50.104;8.074;2023-05-07T01:22:57;97174.34;;;11.97;100.00
74708;BME280;63360;50.104;8.074;2023-05-07T01:25:24;97175.22;;;12.01;100.00
74708;BME280;63360;50.104;8.074;2023-05-07T01:27:50;97166.03;;;11.95;100.00
74708;BME280;63360;50.104;8.074;2023-05-07T01:30:18;97168.47;;;12.00;100.00
74708;BME280;63360;50.104;8.074;2023-05-07T01:33:06;97162.97;;;12.02;100.00
74708;BME280;63360;50.104;8.074;2023-05-07T01:35:37;97165.13;;;12.00;100.00
74708;BME280;63360;50.104;8.074;2023-05-07T01:38:05;97155.13;;;12.02;100.00
74708;BME280;63360;50.104;8.074;2023-05-07T01:40:33;97155.75;;;11.99;100.00
74708;BME280;63360;50.104;8.074;2023-05-07T01:43:02;97143.53;;;11.91;100.00
74708;BME280;63360;50.104;8.074;2023-05-07T01:45:30;97140.94;;;11.91;100.00
74708;BME280;63360;50.104;8.074;2023-05-07T01:47:57;97149.63;;;11.95;100.00
74708;BME280;63360;50.104;8.074;2023-05-07T01:50:25;97156.84;;;11.98;100.00
74708;BME280;63360;50.104;8.074;2023-05-07T01:52:51;97148.13;;;11.94;100.00
74708;BME280;63360;50.104;8.074;2023-05-07T01:55:18;97152.41;;;11.90;100.00
74708;BME280;63360;50.104;8.074;2023-05-07T01:57:45;97149.81;;;11.90;100.00
74708;BME280;63360;50.104;8.074;2023-05-07T02:00:12;97153.78;;;11.96;100.00
74708;BME280;63360;50.104;8.074;2023-05-07T02:02:38;97160.53;;;11.97;100.00
74708;BME280;63360;50.104;8.074;2023-05-07T02:05:05;97146.28;;;11.94;100.00
74708;BME280;63360;50.104;8.074;2023-05-07T02:07:32;97146.72;;;11.96;100.00
74708;BME280;63360;50.104;8.074;2023-05-07T02:09:58;97148.28;;;11.97;100.00
74708;BME280;63360;50.104;8.074;2023-05-07T02:12:25;97142.47;;;11.92;100.00
74708;BME280;63360;50.104;8.074;2023-05-07T02:14:51;97136.03;;;11.89;100.00
74708;BME280;63360;50.104;8.074;2023-05-07T02:17:17;97155.63;;;11.95;100.00
74708;BME280;63360;50.104;8.074;2023-05-07T02:19:44;97151.19;;;11.96;100.00
74708;BME280;63360;50.104;8.074;2023-05-07T02:22:11;97156.38;;;11.96;100.00
74708;BME280;63360;50.104;8.074;2023-05-07T02:24:37;97143.19;;;11.92;100.00
74708;BME280;63360;50.104;8.074;2023-05-07T02:27:04;97146.91;;;11.91;100.00
74708;BME280;63360;50.104;8.074;2023-05-07T02:29:30;97152.13;;;11.91;100.00
74708;BME280;63360;50.104;8.074;2023-05-07T02:31:56;97162.81;;;11.98;100.00
74708;BME280;63360;50.104;8.074;2023-05-07T02:34:23;97146.91;;;11.91;100.00
74708;BME280;63360;50.104;8.074;2023-05-07T02:36:49;97155.63;;;11.95;100.00
74708;BME280;63360;50.104;8.074;2023-05-07T02:39:16;97154.09;;;11.94;100.00
74708;BME280;63360;50.104;8.074;2023-05-07T02:41:42;97151.19;;;11.96;100.00
74708;BME280;63360;50.104;8.074;2023-05-07T02:44:09;97160.97;;;11.99;100.00
74708;BME280;63360;50.104;8.074;2023-05-07T02:46:35;97157.31;;;12.00;100.00
74708;BME280;63360;50.104;8.074;2023-05-07T02:49:01;97158.38;;;11.99;100.00
74708;BME280;63360;50.104;8.074;2023-05-07T02:51:30;97145.97;;;11.96;100.00
74708;BME280;63360;50.104;8.074;2023-05-07T02:53:56;97155.75;;;11.99;100.00
74708;BME280;63360;50.104;8.074;2023-05-07T02:56:25;97150.41;;;11.95;100.00
74708;BME280;63360;50.104;8.074;2023-05-07T02:58:52;97150.72;;;11.94;100.00
74708;BME280;63360;50.104;8.074;2023-05-07T03:01:18;97143.78;;;11.98;100.00
74708;BME280;63360;50.104;8.074;2023-05-07T03:03:45;97139.53;;;11.93;100.00
74708;BME280;63360;50.104;8.074;2023-05-07T03:06:11;97134.94;;;11.90;100.00
74708;BME280;63360;50.104;8.074;2023-05-07T03:08:38;97146.72;;;11.96;100.00
74708;BME280;63360;50.104;8.074;2023-05-07T03:11:04;97153.00;;;11.95;100.00
74708;BME280;63360;50.104;8.074;2023-05-07T03:13:31;97150.41;;;11.95;100.00
74708;BME280;63360;50.104;8.074;2023-05-07T03:15:57;97145.50;;;11.94;100.00
74708;BME280;63360;50.104;8.074;2023-05-07T03:18:23;97130.69;;;11.86;100.00
74708;BME280;63360;50.104;8.074;2023-05-07T03:20:51;97139.53;;;11.93;100.00
74708;BME280;63360;50.104;8.074;2023-05-07T03:23:17;97140.72;;;12.04;100.00
74708;BME280;63360;50.104;8.074;2023-05-07T03:25:44;97131.72;;;11.93;100.00
74708;BME280;63360;50.104;8.074;2023-05-07T03:28:10;97124.53;;;11.90;100.00
74708;BME280;63360;50.104;8.074;2023-05-07T03:30:37;97115.81;;;11.86;100.00
74708;BME280;63360;50.104;8.074;2023-05-07T03:33:03;97108.16;;;11.81;100.00
74708;BME280;63360;50.104;8.074;2023-05-07T03:35:30;97117.94;;;11.84;100.00
74708;BME280;63360;50.104;8.074;2023-05-07T03:37:56;97113.38;;;11.81;100.00
74708;BME280;63360;50.104;8.074;2023-05-07T03:40:22;97116.88;;;11.85;100.00
74708;BME280;63360;50.104;8.074;2023-05-07T03:42:49;97118.28;;;11.83;100.00
74708;BME280;63360;50.104;8.074;2023-05-07T03:45:15;97128.50;;;11.88;100.00
74708;BME280;63360;50.104;8.074;2023-05-07T03:47:41;97115.81;;;11.86;100.00
74708;BME280;63360;50.104;8.074;2023-05-07T03:50:08;97112.00;;;11.84;100.00
74708;BME280;63360;50.104;8.074;2023-05-07T03:52:35;97114.59;;;11.84;100.00
74708;BME280;63360;50.104;8.074;2023-05-07T03:55:02;97128.22;;;11.89;100.00
74708;BME280;63360;50.104;8.074;2023-05-07T03:57:28;97130.06;;;11.89;100.00
74708;BME280;63360;50.104;8.074;2023-05-07T03:59:55;97122.72;;;11.82;100.00
74708;BME280;63360;50.104;8.074;2023-05-07T04:02:21;97132.38;;;11.82;100.00
74708;BME280;63360;50.104;8.074;2023-05-07T04:04:48;97137.13;;;11.80;100.00
74708;BME280;63360;50.104;8.074;2023-05-07T04:07:15;97142.78;;;11.82;100.00
74708;BME280;63360;50.104;8.074;2023-05-07T04:09:42;97140.06;;;11.78;100.00
74708;BME280;63360;50.104;8.074;2023-05-07T04:12:08;97134.88;;;11.70;100.00
74708;BME280;63360;50.104;8.074;2023-05-07T04:14:35;97156.16;;;11.80;100.00
74708;BME280;63360;50.104;8.074;2023-05-07T04:17:01;97151.28;;;11.70;100.00
74708;BME280;63360;50.104;8.074;2023-05-07T04:19:29;97160.13;;;11.78;100.00
74708;BME280;63360;50.104;8.074;2023-05-07T04:21:56;97152.16;;;11.74;100.00
74708;BME280;63360;50.104;8.074;2023-05-07T04:24:22;97154.34;;;11.72;100.00
74708;BME280;63360;50.104;8.074;2023-05-07T04:26:49;97156.00;;;11.68;100.00
74708;BME280;63360;50.104;8.074;2023-05-07T04:29:17;97163.38;;;11.75;100.00
74708;BME280;63360;50.104;8.074;2023-05-07T04:31:44;97154.47;;;11.67;100.00
74708;BME280;63360;50.104;8.074;2023-05-07T04:34:11;97167.34;;;11.72;100.00
74708;BME280;63360;50.104;8.074;2023-05-07T04:36:38;97170.41;;;11.74;100.00
74708;BME280;63360;50.104;8.074;2023-05-07T04:39:04;97163.53;;;11.70;100.00
74708;BME280;63360;50.104;8.074;2023-05-07T04:41:31;97152.78;;;11.71;100.00
74708;BME280;63360;50.104;8.074;2023-05-07T04:43:59;97162.41;;;11.79;100.00
74708;BME280;63360;50.104;8.074;2023-05-07T04:46:25;97161.09;;;11.73;100.00
74708;BME280;63360;50.104;8.074;2023-05-07T04:48:52;97156.00;;;11.77;100.00
74708;BME280;63360;50.104;8.074;2023-05-07T04:51:18;97162.41;;;11.79;100.00
74708;BME280;63360;50.104;8.074;2023-05-07T04:53:44;97163.34;;;11.83;100.00
74708;BME280;63360;50.104;8.074;2023-05-07T04:56:11;97157.00;;;11.93;100.00
74708;BME280;63360;50.104;8.074;2023-05-07T04:58:37;97158.28;;;11.87;100.00
74708;BME280;63360;50.104;8.074;2023-05-07T05:01:04;97170.19;;;11.96;100.00
74708;BME280;63360;50.104;8.074;2023-05-07T05:03:30;97159.50;;;11.89;100.00
74708;BME280;63360;50.104;8.074;2023-05-07T05:05:57;97166.38;;;11.94;100.00
74708;BME280;63360;50.104;8.074;2023-05-07T05:08:25;97177.84;;;12.01;100.00
74708;BME280;63360;50.104;8.074;2023-05-07T05:10:52;97168.94;;;12.02;100.00
74708;BME280;63360;50.104;8.074;2023-05-07T05:13:18;97179.19;;;12.07;100.00
74708;BME280;63360;50.104;8.074;2023-05-07T05:15:44;97178.44;;;12.07;100.00
74708;BME280;63360;50.104;8.074;2023-05-07T05:18:11;97175.19;;;12.10;100.00
74708;BME280;63360;50.104;8.074;2023-05-07T05:20:38;97177.31;;;12.16;100.00
74708;BME280;63360;50.104;8.074;2023-05-07T05:23:04;97181.59;;;12.21;100.00
74708;BME280;63360;50.104;8.074;2023-05-07T05:25:32;97193.94;;;12.33;100.00
74708;BME280;63360;50.104;8.074;2023-05-07T05:27:58;97197.59;;;12.40;100.00
74708;BME280;63360;50.104;8.074;2023-05-07T05:30:24;97198.81;;;12.43;100.00
74708;BME280;63360;50.104;8.074;2023-05-07T05:32:51;97197.84;;;12.56;100.00
74708;BME280;63360;50.104;8.074;2023-05-07T05:35:17;97181.53;;;12.59;100.00
74708;BME280;63360;50.104;8.074;2023-05-07T05:37:44;97174.16;;;12.61;100.00
74708;BME280;63360;50.104;8.074;2023-05-07T05:40:10;97196.66;;;12.95;94.51
74708;BME280;63360;50.104;8.074;2023-05-07T05:42:37;97190.44;;;13.08;94.65
74708;BME280;63360;50.104;8.074;2023-05-07T05:45:04;97199.56;;;13.34;87.40
74708;BME280;63360;50.104;8.074;2023-05-07T05:47:30;97189.91;;;13.47;87.52
74708;BME280;63360;50.104;8.074;2023-05-07T05:49:57;97193.34;;;13.60;86.00
74708;BME280;63360;50.104;8.074;2023-05-07T05:52:23;97199.59;;;13.79;87.63
74708;BME280;63360;50.104;8.074;2023-05-07T05:54:50;97196.25;;;14.03;89.08
74708;BME280;63360;50.104;8.074;2023-05-07T05:57:16;97198.94;;;14.39;84.14
74708;BME280;63360;50.104;8.074;2023-05-07T05:59:43;97192.44;;;15.13;77.00
74708;BME280;63360;50.104;8.074;2023-05-07T06:02:09;97184.91;;;15.39;73.81
74708;BME280;63360;50.104;8.074;2023-05-07T06:04:36;97190.72;;;15.88;73.01
74708;BME280;63360;50.104;8.074;2023-05-07T06:07:02;97193.84;;;16.09;70.80
74708;BME280;63360;50.104;8.074;2023-05-07T06:09:29;97195.41;;;16.45;68.65
74708;BME280;63360;50.104;8.074;2023-05-07T06:11:55;97198.19;;;16.68;68.30
74708;BME280;63360;50.104;8.074;2023-05-07T06:14:25;97186.16;;;16.67;66.17
74708;BME280;63360;50.104;8.074;2023-05-07T06:16:52;97192.31;;;16.55;67.41
74708;BME280;63360;50.104;8.074;2023-05-07T06:19:18;97187.47;;;16.42;66.90
74708;BME280;63360;50.104;8.074;2023-05-07T06:21:49;97190.84;;;16.26;66.29
74708;BME280;63360;50.104;8.074;2023-05-07T06:24:16;97187.56;;;16.14;69.59
74708;BME280;63360;50.104;8.074;2023-05-07T06:26:42;97180.88;;;16.01;69.30
74708;BME280;63360;50.104;8.074;2023-05-07T06:29:09;97194.16;;;16.08;69.65
74708;BME280;63360;50.104;8.074;2023-05-07T06:31:35;97195.84;;;16.00;69.81
74708;BME280;63360;50.104;8.074;2023-05-07T06:34:02;97187.47;;;15.95;70.33
74708;BME280;63360;50.104;8.074;2023-05-07T06:36:28;97187.22;;;15.84;69.64
74708;BME280;63360;50.104;8.074;2023-05-07T06:38:55;97201.72;;;15.94;68.74
74708;BME280;63360;50.104;8.074;2023-05-07T06:41:22;97193.66;;;15.87;67.67
74708;BME280;63360;50.104;8.074;2023-05-07T06:43:48;97199.75;;;15.91;67.84
74708;BME280;63360;50.104;8.074;2023-05-07T06:46:15;97207.63;;;15.91;69.35
74708;BME280;63360;50.104;8.074;2023-05-07T06:48:42;97191.38;;;15.85;69.32
74708;BME280;63360;50.104;8.074;2023-05-07T06:51:08;97197.13;;;15.91;70.05
74708;BME280;63360;50.104;8.074;2023-05-07T06:53:35;97206.44;;;15.88;70.44
74708;BME280;63360;50.104;8.074;2023-05-07T06:56:01;97207.13;;;15.85;70.76
74708;BME280;63360;50.104;8.074;2023-05-07T06:58:28;97211.25;;;15.86;68.40
74708;BME280;63360;50.104;8.074;2023-05-07T07:00:54;97208.88;;;15.81;67.93
74708;BME280;63360;50.104;8.074;2023-05-07T07:03:20;97208.13;;;15.81;69.54
74708;BME280;63360;50.104;8.074;2023-05-07T07:05:47;97205.81;;;15.79;68.92
74708;BME280;63360;50.104;8.074;2023-05-07T07:08:13;97209.78;;;15.73;70.27
74708;BME280;63360;50.104;8.074;2023-05-07T07:10:40;97226.16;;;15.82;71.57
74708;BME280;63360;50.104;8.074;2023-05-07T07:13:07;97223.41;;;15.78;70.40
74708;BME280;63360;50.104;8.074;2023-05-07T07:15:33;97215.47;;;15.75;70.07
74708;BME280;63360;50.104;8.074;2023-05-07T07:18:00;97217.34;;;15.74;69.88
74708;BME280;63360;50.104;8.074;2023-05-07T07:20:26;97204.03;;;15.67;69.43
74708;BME280;63360;50.104;8.074;2023-05-07T07:22:52;97211.06;;;15.63;69.99
74708;BME280;63360;50.104;8.074;2023-05-07T07:25:19;97209.72;;;15.69;69.95
74708;BME280;63360;50.104;8.074;2023-05-07T07:27:45;97203.84;;;15.60;69.39
74708;BME280;63360;50.104;8.074;2023-05-07T07:30:12;97199.03;;;15.62;70.41
74708;BME280;63360;50.104;8.074;2023-05-07T07:32:39;97202.00;;;15.61;71.03
74708;BME280;63360;50.104;8.074;2023-05-07T07:35:06;97217.47;;;15.66;70.93
74708;BME280;63360;50.104;8.074;2023-05-07T07:37:32;97217.13;;;15.67;71.06
74708;BME280;63360;50.104;8.074;2023-05-07T07:39:59;97217.47;;;15.66;71.14
74708;BME280;63360;50.104;8.074;2023-05-07T07:42:26;97224.34;;;15.70;71.41
74708;BME280;63360;50.104;8.074;2023-05-07T07:44:52;97212.25;;;15.66;70.92
74708;BME280;63360;50.104;8.074;2023-05-07T07:47:18;97213.91;;;15.58;71.29
74708;BME280;63360;50.104;8.074;2023-05-07T07:49:45;97227.56;;;15.64;72.06
74708;BME280;63360;50.104;8.074;2023-05-07T07:52:11;97215.88;;;15.61;71.35
74708;BME280;63360;50.104;8.074;2023-05-07T07:54:38;97230.69;;;15.69;70.72
74708;BME280;63360;50.104;8.074;2023-05-07T07:57:04;97225.53;;;15.73;72.14
74708;BME280;63360;50.104;8.074;2023-05-07T07:59:31;97221.25;;;15.81;71.20
74708;BME280;63360;50.104;8.074;2023-05-07T08:01:57;97221.31;;;15.84;70.78
74708;BME280;63360;50.104;8.074;2023-05-07T08:04:24;97226.81;;;15.95;71.42
74708;BME280;63360;50.104;8.074;2023-05-07T08:06:50;97234.63;;;16.07;69.66
74708;BME280;63360;50.104;8.074;2023-05-07T08:09:17;97231.34;;;16.10;68.76
74708;BME280;63360;50.104;8.074;2023-05-07T08:11:43;97231.34;;;16.25;71.60
74708;BME280;63360;50.104;8.074;2023-05-07T08:14:10;97231.91;;;16.34;70.59
74708;BME280;63360;50.104;8.074;2023-05-07T08:16:37;97228.03;;;16.28;68.73
74708;BME280;63360;50.104;8.074;2023-05-07T08:19:03;97235.91;;;16.44;68.47
74708;BME280;63360;50.104;8.074;2023-05-07T08:21:30;97231.84;;;16.47;68.13
74708;BME280;63360;50.104;8.074;2023-05-07T08:23:59;97237.19;;;16.66;68.03
74708;BME280;63360;50.104;8.074;2023-05-07T08:26:25;97230.91;;;16.70;67.04
74708;BME280;63360;50.104;8.074;2023-05-07T08:28:52;97225.72;;;16.74;68.04
74708;BME280;63360;50.104;8.074;2023-05-07T08:31:18;97226.09;;;16.91;67.55
74708;BME280;63360;50.104;8.074;2023-05-07T08:33:45;97222.91;;;17.02;67.30
74708;BME280;63360;50.104;8.074;2023-05-07T08:36:11;97235.09;;;17.10;66.03
74708;BME280;63360;50.104;8.074;2023-05-07T08:38:38;97232.97;;;17.34;66.80
74708;BME280;63360;50.104;8.074;2023-05-07T08:41:10;97233.88;;;17.61;61.96
74708;BME280;63360;50.104;8.074;2023-05-07T08:43:37;97233.38;;;17.75;63.43
74708;BME280;63360;50.104;8.074;2023-05-07T08:46:08;97229.53;;;17.91;63.12
74708;BME280;63360;50.104;8.074;2023-05-07T08:48:36;97237.44;;;18.14;63.00
74708;BME280;63360;50.104;8.074;2023-05-07T08:51:02;97239.00;;;18.41;60.77
74708;BME280;63360;50.104;8.074;2023-05-07T08:53:29;97227.00;;;18.44;59.61
74708;BME280;63360;50.104;8.074;2023-05-07T08:55:56;97245.03;;;18.64;61.91
74708;BME280;63360;50.104;8.074;2023-05-07T08:58:22;97237.78;;;18.84;59.62
74708;BME280;63360;50.104;8.074;2023-05-07T09:00:49;97243.94;;;18.65;59.51
74708;BME280;63360;50.104;8.074;2023-05-07T09:03:17;97240.97;;;18.70;60.06
74708;BME280;63360;50.104;8.074;2023-05-07T09:05:44;97237.28;;;18.75;60.24
74708;BME280;63360;50.104;8.074;2023-05-07T09:08:14;97243.91;;;18.92;60.09
74708;BME280;63360;50.104;8.074;2023-05-07T09:10:41;97234.34;;;19.10;56.95
74708;BME280;63360;50.104;8.074;2023-05-07T09:13:08;97235.47;;;19.39;58.18
74708;BME280;63360;50.104;8.074;2023-05-07T09:15:35;97230.75;;;19.55;57.37
74708;BME280;63360;50.104;8.074;2023-05-07T09:18:01;97229.09;;;19.76;57.49
74708;BME280;63360;50.104;8.074;2023-05-07T09:20:30;97233.44;;;19.95;57.75
74708;BME280;63360;50.104;8.074;2023-05-07T09:22:56;97226.56;;;20.31;56.69
74708;BME280;63360;50.104;8.074;2023-05-07T09:25:30;97223.59;;;20.36;55.23
74708;BME280;63360;50.104;8.074;2023-05-07T09:27:57;97232.44;;;20.58;54.04
74708;BME280;63360;50.104;8.074;2023-05-07T09:30:30;97223.84;;;20.71;53.00
74708;BME280;63360;50.104;8.074;2023-05-07T09:33:01;97223.16;;;20.85;53.97
74708;BME280;63360;50.104;8.074;2023-05-07T09:35:29;97226.53;;;20.82;53.38
74708;BME280;63360;50.104;8.074;2023-05-07T09:37:57;97219.56;;;20.52;54.75
74708;BME280;63360;50.104;8.074;2023-05-07T09:40:28;97235.06;;;20.58;55.11
74708;BME280;63360;50.104;8.074;2023-05-07T09:42:55;97236.81;;;20.36;56.29
74708;BME280;63360;50.104;8.074;2023-05-07T09:45:26;97238.56;;;20.21;54.63
74708;BME280;63360;50.104;8.074;2023-05-07T09:47:57;97236.78;;;19.92;54.86
74708;BME280;63360;50.104;8.074;2023-05-07T09:50:29;97231.63;;;19.66;56.00
74708;BME280;63360;50.104;8.074;2023-05-07T09:52:57;97224.03;;;19.61;56.91
74708;BME280;63360;50.104;8.074;2023-05-07T09:55:23;97226.59;;;19.54;56.46
74708;BME280;63360;50.104;8.074;2023-05-07T09:57:52;97226.44;;;19.40;56.17
74708;BME280;63360;50.104;8.074;2023-05-07T10:00:20;97243.06;;;19.44;56.77
74708;BME280;63360;50.104;8.074;2023-05-07T10:02:52;97234.38;;;19.43;57.33
74708;BME280;63360;50.104;8.074;2023-05-07T10:05:19;97234.13;;;19.22;57.58
74708;BME280;63360;50.104;8.074;2023-05-07T10:07:46;97222.31;;;19.12;58.08
74708;BME280;63360;50.104;8.074;2023-05-07T10:10:14;97223.63;;;19.25;56.80
74708;BME280;63360;50.104;8.074;2023-05-07T10:12:41;97220.97;;;18.96;56.23
74708;BME280;63360;50.104;8.074;2023-05-07T10:15:09;97220.22;;;18.95;58.19
74708;BME280;63360;50.104;8.074;2023-05-07T10:17:40;97234.09;;;19.18;58.72
74708;BME280;63360;50.104;8.074;2023-05-07T10:20:07;97232.47;;;19.10;57.46
74708;BME280;63360;50.104;8.074;2023-05-07T10:22:38;97225.69;;;19.09;58.48
74708;BME280;63360;50.104;8.074;2023-05-07T10:25:14;97229.06;;;19.10;57.43
74708;BME280;63360;50.104;8.074;2023-05-07T10:27:43;97243.81;;;19.14;59.34
74708;BME280;63360;50.104;8.074;2023-05-07T10:30:30;97220.03;;;19.11;57.84
74708;BME280;63360;50.104;8.074;2023-05-07T10:33:05;97230.28;;;19.16;57.09
74708;BME280;63360;50.104;8.074;2023-05-07T10:35:38;97234.22;;;19.29;58.94
74708;BME280;63360;50.104;8.074;2023-05-07T10:38:05;97228.84;;;19.22;57.01
74708;BME280;63360;50.104;8.074;2023-05-07T10:40:31;97220.78;;;19.08;56.87
74708;BME280;63360;50.104;8.074;2023-05-07T10:43:00;97230.44;;;19.00;58.41
74708;BME280;63360;50.104;8.074;2023-05-07T10:45:28;97232.78;;;19.05;57.72
74708;BME280;63360;50.104;8.074;2023-05-07T10:48:06;97222.41;;;19.19;60.08
74708;BME280;63360;50.104;8.074;2023-05-07T10:51:19;97233.78;;;19.27;60.34
74708;BME280;63360;50.104;8.074;2023-05-07T10:56:39;97210.25;;;19.11;57.08
74708;BME280;63360;50.104;8.074;2023-05-07T11:01:54;97232.69;;;19.28;58.21
74708;BME280;63360;50.104;8.074;2023-05-07T11:04:21;97229.53;;;19.15;58.31
74708;BME280;63360;50.104;8.074;2023-05-07T11:15:14;97216.03;;;19.20;58.45
74708;BME280;63360;50.104;8.074;2023-05-07T11:17:58;97237.69;;;19.36;56.72
74708;BME280;63360;50.104;8.074;2023-05-07T11:26:08;97233.84;;;19.30;57.14
74708;BME280;63360;50.104;8.074;2023-05-07T11:28:40;97234.88;;;19.22;57.68
74708;BME280;63360;50.104;8.074;2023-05-07T11:31:07;97234.81;;;19.15;58.41
74708;BME280;63360;50.104;8.074;2023-05-07T11:33:34;97240.22;;;19.29;57.17
74708;BME280;63360;50.104;8.074;2023-05-07T11:36:03;97217.91;;;19.20;59.73
74708;BME280;63360;50.104;8.074;2023-05-07T11:38:30;97227.34;;;19.24;58.40
74708;BME280;63360;50.104;8.074;2023-05-07T11:40:58;97212.69;;;19.23;57.65
74708;BME280;63360;50.104;8.074;2023-05-07T11:43:27;97216.78;;;19.21;57.49
74708;BME280;63360;50.104;8.074;2023-05-07T11:45:53;97218.72;;;19.27;57.42
74708;BME280;63360;50.104;8.074;2023-05-07T11:48:21;97221.38;;;19.27;55.08
74708;BME280;63360;50.104;8.074;2023-05-07T11:51:02;97212.69;;;19.27;54.67
74708;BME280;63360;50.104;8.074;2023-05-07T11:53:36;97207.13;;;19.32;56.65
74708;BME280;63360;50.104;8.074;2023-05-07T11:56:13;97208.00;;;19.40;54.74
74708;BME280;63360;50.104;8.074;2023-05-07T11:58:40;97221.03;;;19.62;55.96
74708;BME280;63360;50.104;8.074;2023-05-07T12:01:08;97224.47;;;19.66;55.03
74708;BME280;63360;50.104;8.074;2023-05-07T12:03:36;97222.78;;;19.88;56.63
74708;BME280;63360;50.104;8.074;2023-05-07T12:06:06;97224.34;;;19.92;56.39
74708;BME280;63360;50.104;8.074;2023-05-07T12:08:32;97206.94;;;19.84;54.63
74708;BME280;63360;50.104;8.074;2023-05-07T12:10:59;97207.84;;;20.03;54.29
74708;BME280;63360;50.104;8.074;2023-05-07T12:13:25;97215.13;;;20.16;52.58
74708;BME280;63360;50.104;8.074;2023-05-07T12:15:53;97210.19;;;20.11;53.25
74708;BME280;63360;50.104;8.074;2023-05-07T12:18:20;97220.03;;;20.18;53.57
74708;BME280;63360;50.104;8.074;2023-05-07T12:20:47;97216.41;;;20.33;53.57
74708;BME280;63360;50.104;8.074;2023-05-07T12:23:14;97209.50;;;20.21;52.61
74708;BME280;63360;50.104;8.074;2023-05-07T12:25:42;97212.41;;;20.06;51.95
74708;BME280;63360;50.104;8.074;2023-05-07T12:28:14;97205.94;;;20.00;52.52
74708;BME280;63360;50.104;8.074;2023-05-07T12:30:46;97226.28;;;19.99;52.33
74708;BME280;63360;50.104;8.074;2023-05-07T12:33:17;97225.16;;;20.00;52.44
74708;BME280;63360;50.104;8.074;2023-05-07T12:35:44;97219.69;;;19.79;52.39
74708;BME280;63360;50.104;8.074;2023-05-07T12:38:15;97223.44;;;19.78;51.64
74708;BME280;63360;50.104;8.074;2023-05-07T12:40:48;97222.63;;;19.70;52.21
74708;BME280;63360;50.104;8.074;2023-05-07T12:43:21;97226.06;;;19.74;53.74
74708;BME280;63360;50.104;8.074;2023-05-07T12:45:51;97230.22;;;19.75;51.98
74708;BME280;63360;50.104;8.074;2023-05-07T12:48:19;97213.16;;;19.66;51.87
74708;BME280;63360;50.104;8.074;2023-05-07T12:50:51;97213.59;;;19.71;51.01
74708;BME280;63360;50.104;8.074;2023-05-07T12:53:20;97222.66;;;19.74;52.45
74708;BME280;63360;50.104;8.074;2023-05-07T12:55:49;97224.31;;;19.89;51.97
74708;BME280;63360;50.104;8.074;2023-05-07T12:58:34;97224.78;;;20.02;52.67
74708;BME280;63360;50.104;8.074;2023-05-07T13:01:05;97212.78;;;20.08;52.85
74708;BME280;63360;50.104;8.074;2023-05-07T13:03:34;97217.22;;;19.96;48.85
74708;BME280;63360;50.104;8.074;2023-05-07T13:06:09;97212.63;;;19.90;50.80
74708;BME280;63360;50.104;8.074;2023-05-07T13:08:40;97221.63;;;19.85;52.47
74708;BME280;63360;50.104;8.074;2023-05-07T13:11:10;97213.25;;;19.76;52.22
74708;BME280;63360;50.104;8.074;2023-05-07T13:13:38;97216.34;;;19.85;52.94
74708;BME280;63360;50.104;8.074;2023-05-07T13:16:07;97221.63;;;19.85;52.50
74708;BME280;63360;50.104;8.074;2023-05-07T13:18:33;97213.75;;;19.89;52.21